Time;durP1;ratioP1;P1;durP2;ratioP2;P2;SDS_P1;SDS_P2;PMS_P1;PMS_P2;Temp;Humidity;BMP_temperature;BMP_pressure;BME280_temperature;BME280_humidity;BME280_pressure;Samples;Min_cycle;Max_cycle;Signal;HPM_P1;HPM_P2
2023/11/11 00:01:56;;;;;;;40.90;20.30;;;;;;;6.42;89.63;98936.66;110698;1269;22196;-78
2023/11/11 00:04:26;;;;;;;41.30;20.70;;;;;;;6.34;89.75;98933.48;110762;1269;22202;-78
2023/11/11 00:06:54;;;;;;;45.50;20.80;;;;;;;6.32;89.95;98933.44;110718;1272;22359;-77
2023/11/11 00:09:22;;;;;;;42.20;20.80;;;;;;;6.30;89.82;98935.84;110693;1272;22184;-78
2023/11/11 00:11:51;;;;;;;38.80;20.20;;;;;;;6.29;89.94;98938.14;110784;1272;22423;-78
2023/11/11 00:14:20;;;;;;;41.30;20.30;;;;;;;6.27;89.63;98940.33;110786;1272;22553;-78
2023/11/11 00:16:48;;;;;;;35.30;19.20;;;;;;;6.25;89.24;98945.04;110594;1272;162242;-78
2023/11/11 00:19:17;;;;;;;38.50;19.30;;;;;;;6.22;89.19;98942.45;110740;1267;22383;-78
2023/11/11 00:21:49;;;;;;;34.40;17.40;;;;;;;6.16;88.83;98947.35;110764;1272;22253;-78
2023/11/11 00:24:18;;;;;;;36.50;16.50;;;;;;;6.10;88.93;98946.45;110617;1272;22368;-78
2023/11/11 00:26:48;;;;;;;33.00;15.50;;;;;;;6.06;89.15;98946.45;110762;1272;22163;-78
2023/11/11 00:29:16;;;;;;;32.80;16.80;;;;;;;6.04;89.07;98947.66;110757;1272;22548;-78
2023/11/11 00:31:47;;;;;;;30.30;14.50;;;;;;;6.02;89.07;98952.28;110787;1272;22310;-78
2023/11/11 00:34:19;;;;;;;29.10;14.40;;;;;;;6.00;89.09;98945.59;110516;1272;22182;-79
2023/11/11 00:36:50;;;;;;;28.90;13.80;;;;;;;5.98;88.96;98947.58;110801;1268;22237;-79
2023/11/11 00:39:20;;;;;;;33.00;14.50;;;;;;;5.96;89.02;98946.93;110779;1272;23054;-80
2023/11/11 00:41:49;;;;;;;28.80;13.70;;;;;;;5.93;88.88;98950.02;110767;1272;22141;-80
2023/11/11 00:44:19;;;;;;;33.00;16.20;;;;;;;5.90;88.67;98955.80;110698;1272;22301;-80
2023/11/11 00:46:48;;;;;;;33.00;16.40;;;;;;;5.86;88.39;98956.33;108243;1272;22561;-79
2023/11/11 00:49:23;;;;;;;38.60;20.40;;;;;;;5.82;88.15;98951.37;108621;1272;22571;-79
2023/11/11 00:51:52;;;;;;;40.10;19.70;;;;;;;5.77;88.09;98951.82;108038;1272;22528;-79
2023/11/11 00:54:20;;;;;;;42.20;21.80;;;;;;;5.71;88.10;98946.89;108007;1272;22656;-79
2023/11/11 00:56:48;;;;;;;42.40;21.70;;;;;;;5.67;88.12;98940.71;108033;1272;22869;-80
2023/11/11 00:59:17;;;;;;;40.50;21.60;;;;;;;5.63;88.35;98933.00;107594;1272;22531;-79
2023/11/11 01:01:45;;;;;;;43.80;22.40;;;;;;;5.59;88.57;98926.95;108589;1272;24187;-79
2023/11/11 01:04:14;;;;;;;42.70;22.30;;;;;;;5.56;88.36;98929.27;107805;1272;25405;-79
2023/11/11 01:06:43;;;;;;;46.60;22.00;;;;;;;5.52;88.30;98927.48;108731;1272;22576;-79
2023/11/11 01:09:13;;;;;;;39.70;20.80;;;;;;;5.48;88.33;98930.33;107994;1272;22494;-79
2023/11/11 01:11:42;;;;;;;42.90;22.50;;;;;;;5.45;88.35;98927.00;107945;1272;25265;-79
2023/11/11 01:14:10;;;;;;;46.60;24.20;;;;;;;5.40;88.33;98926.90;107970;1272;22533;-79
2023/11/11 01:16:40;;;;;;;48.30;24.90;;;;;;;5.34;88.29;98926.64;107908;1270;22538;-79
2023/11/11 01:19:10;;;;;;;50.20;25.10;;;;;;;5.30;88.45;98926.65;107858;1272;25387;-79
2023/11/11 01:21:39;;;;;;;46.50;24.20;;;;;;;5.25;88.49;98929.80;107815;1270;25596;-80
2023/11/11 01:24:09;;;;;;;52.20;25.90;;;;;;;5.21;88.07;98933.80;107901;1267;23352;-79
2023/11/11 01:26:38;;;;;;;57.50;26.80;;;;;;;5.14;87.90;98934.81;110752;1272;22144;-79
2023/11/11 01:29:06;;;;;;;51.00;25.50;;;;;;;5.08;88.04;98930.17;110751;1272;23402;-80
2023/11/11 01:31:35;;;;;;;50.70;24.90;;;;;;;5.03;88.15;98930.77;110751;1272;22206;-80
2023/11/11 01:34:04;;;;;;;48.40;25.20;;;;;;;5.00;88.42;98924.79;110743;1261;22198;-80
2023/11/11 01:36:32;;;;;;;50.30;24.40;;;;;;;4.97;88.18;98918.88;110736;1272;22181;-80
2023/11/11 01:39:01;;;;;;;52.70;25.30;;;;;;;4.90;87.63;98920.45;110731;1269;22231;-80
2023/11/11 01:41:31;;;;;;;51.00;26.30;;;;;;;4.81;87.72;98923.60;110744;1272;22181;-80
2023/11/11 01:44:00;;;;;;;54.90;26.80;;;;;;;4.73;87.97;98926.64;110769;1272;22226;-80
2023/11/11 01:46:28;;;;;;;56.50;28.00;;;;;;;4.69;88.37;98928.17;110758;1272;22189;-80
2023/11/11 01:48:57;;;;;;;50.70;26.10;;;;;;;4.67;88.45;98926.71;110792;1272;22690;-80
2023/11/11 01:51:25;;;;;;;53.40;26.70;;;;;;;4.65;88.46;98919.48;110723;1272;22239;-80
2023/11/11 01:53:53;;;;;;;55.50;27.20;;;;;;;4.64;88.51;98910.61;110764;1272;22193;-80
2023/11/11 01:56:24;;;;;;;54.70;25.00;;;;;;;4.62;88.15;98905.95;110746;1272;22219;-80
2023/11/11 01:58:55;;;;;;;51.70;27.00;;;;;;;4.55;87.77;98900.06;110731;1272;22217;-80
2023/11/11 02:01:24;;;;;;;48.00;23.30;;;;;;;4.49;88.04;98896.64;110779;1267;22846;-80
2023/11/11 02:03:52;;;;;;;46.10;22.30;;;;;;;4.45;87.84;98899.09;110664;1266;22446;-80
2023/11/11 02:06:21;;;;;;;48.40;23.30;;;;;;;4.42;88.13;98902.30;110683;1272;23227;-80
2023/11/11 02:08:50;;;;;;;42.90;20.70;;;;;;;4.40;87.94;98900.90;110558;1272;22222;-80
2023/11/11 02:11:19;;;;;;;47.40;24.00;;;;;;;4.37;87.98;98900.79;110753;1272;22181;-79
2023/11/11 02:13:50;;;;;;;47.70;22.80;;;;;;;4.34;87.51;98897.30;110709;1272;22175;-80
2023/11/11 02:16:20;;;;;;;44.10;21.80;;;;;;;4.26;87.20;98893.83;110713;1267;22237;-80
2023/11/11 02:18:48;;;;;;;48.70;21.40;;;;;;;4.12;87.02;98883.96;110716;1270;22149;-80
2023/11/11 02:21:16;;;;;;;48.10;21.90;;;;;;;4.02;87.40;98883.42;110747;1272;22172;-80
2023/11/11 02:23:49;;;;;;;43.40;20.50;;;;;;;3.96;87.85;98883.20;110853;1272;22196;-80
2023/11/11 02:26:17;;;;;;;43.10;22.00;;;;;;;3.96;88.21;98877.46;110759;1272;22922;-80
2023/11/11 02:28:46;;;;;;;47.20;22.40;;;;;;;3.93;87.68;98877.81;110774;1272;22187;-80
2023/11/11 02:31:14;;;;;;;44.50;23.30;;;;;;;3.88;87.53;98879.95;110771;1272;22226;-80
2023/11/11 02:33:43;;;;;;;44.90;21.40;;;;;;;3.84;87.37;98876.73;110788;1266;22201;-80
2023/11/11 02:36:12;;;;;;;45.30;21.30;;;;;;;3.77;87.15;98883.59;110754;1272;22192;-80
2023/11/11 02:38:41;;;;;;;51.10;21.70;;;;;;;3.70;87.66;98884.48;107955;1272;22579;-79
2023/11/11 02:41:10;;;;;;;40.70;20.40;;;;;;;3.68;88.28;98885.98;107850;1267;22540;-79
2023/11/11 02:43:47;;;;;;;41.10;20.50;;;;;;;3.66;88.05;98889.05;108531;1254;22621;-79
2023/11/11 02:46:16;;;;;;;48.90;22.20;;;;;;;3.61;87.55;98890.79;108560;1272;22585;-79
2023/11/11 02:48:44;;;;;;;48.80;22.30;;;;;;;3.58;87.86;98888.95;107762;1266;27544;-79
2023/11/11 02:51:12;;;;;;;49.50;22.20;;;;;;;3.56;88.06;98880.83;107909;1272;22547;-79
2023/11/11 02:53:41;;;;;;;51.80;24.00;;;;;;;3.53;87.91;98881.60;107886;1272;25343;-79
2023/11/11 02:56:11;;;;;;;54.10;23.20;;;;;;;3.48;87.87;98881.23;108036;1267;22570;-79
2023/11/11 02:58:39;;;;;;;54.10;22.90;;;;;;;3.44;88.25;98881.96;107871;1273;26935;-79
2023/11/11 03:01:09;;;;;;;48.50;21.10;;;;;;;3.42;88.57;98883.39;107885;1272;22488;-79
2023/11/11 03:03:41;;;;;;;50.00;21.90;;;;;;;3.37;87.92;98881.59;107802;1272;22528;-79
2023/11/11 03:06:09;;;;;;;45.70;22.20;;;;;;;3.28;87.93;98877.23;107810;1272;22547;-79
2023/11/11 03:08:38;;;;;;;49.20;22.50;;;;;;;3.26;88.70;98876.92;107837;1251;25287;-79
2023/11/11 03:11:09;;;;;;;53.70;22.60;;;;;;;3.25;88.39;98874.06;107800;1272;22587;-79
2023/11/11 03:13:38;;;;;;;46.50;22.60;;;;;;;3.19;88.18;98866.23;107914;1272;24633;-79
2023/11/11 03:16:07;;;;;;;44.20;20.50;;;;;;;3.14;88.57;98865.61;108078;1260;22575;-79
2023/11/11 03:18:35;;;;;;;48.70;22.60;;;;;;;3.11;88.89;98868.45;110719;1269;23295;-80
2023/11/11 03:21:05;;;;;;;49.30;21.00;;;;;;;3.08;88.78;98861.69;110751;1272;22297;-80
2023/11/11 03:23:34;;;;;;;45.90;19.90;;;;;;;3.07;89.06;98860.55;110753;1272;22284;-79
2023/11/11 03:26:02;;;;;;;50.10;21.20;;;;;;;3.03;88.88;98853.70;110589;1272;22207;-80
2023/11/11 03:28:31;;;;;;;45.20;20.80;;;;;;;3.02;89.02;98854.56;110761;1272;22240;-80
2023/11/11 03:31:00;;;;;;;41.10;19.20;;;;;;;3.01;89.02;98852.63;110750;1272;22228;-80
2023/11/11 03:33:29;;;;;;;42.10;19.40;;;;;;;3.01;89.10;98848.54;110669;1270;22228;-79
2023/11/11 03:35:57;;;;;;;41.40;19.30;;;;;;;2.98;88.86;98848.70;110635;1272;22191;-79
2023/11/11 03:38:26;;;;;;;37.50;17.70;;;;;;;2.94;88.34;98850.80;110734;1267;22838;-79
2023/11/11 03:40:56;;;;;;;38.30;17.10;;;;;;;2.80;87.85;98851.91;110633;1272;22936;-79
2023/11/11 03:43:25;;;;;;;47.30;20.10;;;;;;;2.64;88.25;98850.96;110784;1267;22440;-79
2023/11/11 03:45:53;;;;;;;36.40;15.80;;;;;;;2.59;88.62;98852.03;108208;1272;22606;-80
2023/11/11 03:48:21;;;;;;;45.90;17.40;;;;;;;2.58;88.75;98851.85;107734;1272;22535;-79
2023/11/11 03:50:50;;;;;;;33.20;15.50;;;;;;;2.59;89.15;98857.55;107684;1272;25613;-79
2023/11/11 03:53:18;;;;;;;35.10;15.70;;;;;;;2.61;89.04;98858.02;107786;1272;23327;-79
2023/11/11 03:55:47;;;;;;;34.10;15.50;;;;;;;2.59;88.71;98855.80;107957;1272;25268;-79
2023/11/11 03:58:15;;;;;;;36.30;16.50;;;;;;;2.55;88.25;98859.67;108139;1267;23290;-79
2023/11/11 04:00:44;;;;;;;42.60;15.90;;;;;;;2.48;88.24;98856.52;108043;1272;22525;-79
2023/11/11 04:03:14;;;;;;;33.60;15.40;;;;;;;2.43;88.60;98856.06;110684;1272;22451;-79
2023/11/11 04:05:42;;;;;;;33.60;15.20;;;;;;;2.43;88.92;98854.90;110763;1272;22258;-79
2023/11/11 04:08:10;;;;;;;37.10;16.00;;;;;;;2.42;89.04;98858.18;110773;1272;22196;-79
2023/11/11 04:10:39;;;;;;;39.10;16.40;;;;;;;2.43;89.13;98864.88;110775;1266;22200;-79
2023/11/11 04:13:09;;;;;;;38.00;17.40;;;;;;;2.43;89.19;98866.46;110762;1266;22311;-79
2023/11/11 04:15:37;;;;;;;46.20;19.00;;;;;;;2.42;89.00;98867.84;110718;1267;22183;-79
2023/11/11 04:18:06;;;;;;;41.20;18.10;;;;;;;2.39;89.03;98865.36;110777;1272;22228;-80
2023/11/11 04:20:35;;;;;;;45.10;18.90;;;;;;;2.37;89.01;98866.88;110747;1272;22173;-79
2023/11/11 04:23:03;;;;;;;39.90;17.00;;;;;;;2.34;89.14;98863.95;110720;1272;22245;-79
2023/11/11 04:25:32;;;;;;;35.30;16.30;;;;;;;2.33;89.30;98860.52;110706;1267;22193;-79
2023/11/11 04:28:01;;;;;;;40.90;16.70;;;;;;;2.32;89.27;98859.63;110737;1272;22195;-79
2023/11/11 04:30:29;;;;;;;38.70;18.20;;;;;;;2.30;89.42;98852.52;110695;1268;22208;-79
2023/11/11 04:32:57;;;;;;;46.20;17.50;;;;;;;2.30;89.74;98853.98;110716;1250;22256;-79
2023/11/11 04:35:26;;;;;;;40.70;16.00;;;;;;;2.27;89.58;98852.73;110695;1272;22332;-79
2023/11/11 04:37:54;;;;;;;40.90;16.00;;;;;;;2.20;89.36;98852.33;110692;1272;22919;-80
2023/11/11 04:40:24;;;;;;;41.30;17.00;;;;;;;2.15;89.87;98853.31;110665;1272;22358;-79
2023/11/11 04:42:53;;;;;;;36.60;16.20;;;;;;;2.18;90.27;98849.81;110699;1269;22218;-79
2023/11/11 04:45:21;;;;;;;41.80;17.80;;;;;;;2.19;90.30;98842.21;110705;1272;23202;-79
2023/11/11 04:47:51;;;;;;;40.00;17.60;;;;;;;2.18;90.08;98838.86;110667;1272;22986;-79
2023/11/11 04:50:19;;;;;;;46.50;16.00;;;;;;;2.19;90.24;98837.34;110728;1272;22180;-79
2023/11/11 04:52:48;;;;;;;49.50;16.40;;;;;;;2.17;90.12;98835.46;110737;1272;22196;-80
2023/11/11 04:55:17;;;;;;;35.00;15.70;;;;;;;2.15;90.25;98834.65;110766;1266;22458;-79
2023/11/11 04:57:45;;;;;;;46.50;19.70;;;;;;;2.14;90.12;98835.89;110768;1272;22267;-79
2023/11/11 05:00:17;;;;;;;37.60;15.80;;;;;;;2.14;90.07;98844.39;110768;1272;22363;-80
2023/11/11 05:02:45;;;;;;;39.80;16.80;;;;;;;2.10;89.71;98850.47;110721;1272;22232;-80
2023/11/11 05:05:13;;;;;;;37.30;15.90;;;;;;;2.05;89.57;98850.60;110685;1269;22768;-79
2023/11/11 05:07:42;;;;;;;32.00;14.90;;;;;;;2.02;89.65;98851.59;110741;1272;22165;-79
2023/11/11 05:10:10;;;;;;;32.10;14.70;;;;;;;2.03;90.24;98851.30;110779;1272;22413;-79
2023/11/11 05:12:39;;;;;;;35.10;15.70;;;;;;;2.05;90.37;98842.41;110655;1266;22179;-79
2023/11/11 05:15:14;;;;;;;32.50;13.90;;;;;;;2.07;90.41;98844.13;110759;1272;22215;-79
2023/11/11 05:17:43;;;;;;;35.90;14.70;;;;;;;2.07;89.97;98845.92;110474;1273;22670;-79
2023/11/11 05:20:13;;;;;;;40.00;17.50;;;;;;;2.05;89.84;98846.02;110600;1270;23086;-79
2023/11/11 05:22:42;;;;;;;35.90;15.70;;;;;;;2.04;89.62;98851.98;110683;1272;22212;-79
2023/11/11 05:25:10;;;;;;;41.10;18.20;;;;;;;2.00;89.55;98858.02;110684;1266;23101;-79
2023/11/11 05:27:39;;;;;;;39.80;16.20;;;;;;;1.99;89.90;98862.70;110673;1266;22236;-79
2023/11/11 05:30:09;;;;;;;39.60;17.30;;;;;;;1.99;89.86;98859.19;110764;1272;22182;-79
2023/11/11 05:32:37;;;;;;;39.10;17.20;;;;;;;1.99;90.32;98860.90;110674;1266;22129;-79
2023/11/11 05:35:07;;;;;;;41.80;17.20;;;;;;;2.01;90.64;98862.61;110780;1270;22539;-80
2023/11/11 05:37:35;;;;;;;40.50;16.60;;;;;;;2.03;90.54;98863.66;110747;1272;22480;-79
2023/11/11 05:40:07;;;;;;;45.50;17.40;;;;;;;2.01;90.37;98868.58;110711;1272;23489;-80
2023/11/11 05:42:36;;;;;;;41.00;18.00;;;;;;;1.99;90.47;98869.64;110659;1272;22380;-79
2023/11/11 05:45:06;;;;;;;45.20;19.30;;;;;;;1.96;90.55;98869.76;110738;1256;22997;-79
2023/11/11 05:47:33;;;;;;;;;;;;;;;1.93;90.74;98871.21;110786;1266;22449;-78
2023/11/11 05:50:02;;;;;;;43.50;15.60;;;;;;;1.88;90.77;98873.05;110714;1272;22202;-78
2023/11/11 05:52:31;;;;;;;52.80;17.40;;;;;;;1.88;91.20;98871.36;110643;1272;22212;-78
2023/11/11 05:54:59;;;;;;;44.30;17.60;;;;;;;1.88;91.08;98868.20;110742;1272;22195;-77
2023/11/11 05:57:27;;;;;;;50.10;19.30;;;;;;;1.85;90.98;98870.17;110759;1272;23366;-76
2023/11/11 05:59:56;;;;;;;45.10;17.10;;;;;;;1.85;91.23;98876.27;110758;1272;23019;-75
2023/11/11 06:02:25;;;;;;;50.10;17.00;;;;;;;1.88;91.42;98884.31;110739;1272;22237;-75
2023/11/11 06:04:53;;;;;;;49.50;18.20;;;;;;;1.90;91.58;98890.34;110790;1272;22210;-77
2023/11/11 06:07:21;;;;;;;43.50;17.60;;;;;;;1.92;91.71;98895.76;110709;1272;22413;-76
2023/11/11 06:09:50;;;;;;;48.50;17.30;;;;;;;1.94;91.55;98899.25;110740;1272;22244;-76
2023/11/11 06:12:18;;;;;;;47.70;18.10;;;;;;;1.91;91.31;98900.52;110671;1257;22320;-75
2023/11/11 06:14:47;;;;;;;41.20;17.50;;;;;;;1.92;91.60;98895.70;110601;1273;22184;-76
2023/11/11 06:17:15;;;;;;;36.90;15.60;;;;;;;1.95;91.85;98893.00;110775;1272;22236;-76
2023/11/11 06:19:43;;;;;;;48.90;17.20;;;;;;;1.97;91.97;98894.48;110685;1272;22279;-76
2023/11/11 06:22:12;;;;;;;41.30;16.70;;;;;;;1.97;91.88;98893.86;110739;1261;22376;-76
2023/11/11 06:24:40;;;;;;;38.80;15.00;;;;;;;1.98;91.96;98896.00;110778;1272;22188;-75
2023/11/11 06:27:09;;;;;;;40.60;17.50;;;;;;;2.00;91.98;98900.10;110738;1266;22209;-76
2023/11/11 06:29:38;;;;;;;44.80;20.70;;;;;;;2.00;91.89;98904.76;110763;1272;22633;-75
2023/11/11 06:32:06;;;;;;;42.90;18.70;;;;;;;1.99;91.98;98906.73;108978;1269;22662;-74
2023/11/11 06:34:35;;;;;;;41.80;18.00;;;;;;;2.00;91.92;98908.17;107680;1272;22549;-75
2023/11/11 06:37:04;;;;;;;35.90;16.20;;;;;;;2.01;91.76;98905.02;107773;1272;22537;-74
2023/11/11 06:39:33;;;;;;;35.30;15.30;;;;;;;1.99;91.60;98905.18;107648;1272;23349;-75
2023/11/11 06:42:02;;;;;;;38.50;16.30;;;;;;;1.95;91.56;98901.95;107806;1272;24338;-76
2023/11/11 06:44:30;;;;;;;35.60;15.70;;;;;;;1.94;91.83;98904.02;107755;1266;25226;-76
2023/11/11 06:46:59;;;;;;;37.50;17.20;;;;;;;1.94;91.93;98900.02;107857;1272;22527;-75
2023/11/11 06:49:27;;;;;;;41.60;17.50;;;;;;;1.94;91.98;98902.38;107774;1272;23039;-76
2023/11/11 06:51:55;;;;;;;39.50;19.00;;;;;;;1.94;91.98;98905.62;107812;1272;25240;-75
2023/11/11 06:54:24;;;;;;;43.00;19.60;;;;;;;1.95;92.13;98902.75;107654;1260;22541;-77
2023/11/11 06:56:52;;;;;;;40.30;18.60;;;;;;;1.97;92.31;98897.80;107765;1272;25359;-76
2023/11/11 06:59:21;;;;;;;39.20;17.90;;;;;;;2.00;92.40;98898.54;107601;1272;23084;-76
2023/11/11 07:01:49;;;;;;;38.40;17.90;;;;;;;1.98;92.29;98901.45;107721;1272;22532;-76
2023/11/11 07:04:18;;;;;;;35.70;16.80;;;;;;;1.98;92.56;98897.28;107487;1272;22660;-75
2023/11/11 07:06:46;;;;;;;41.80;20.40;;;;;;;1.99;92.63;98906.09;107794;1272;22537;-77
2023/11/11 07:09:14;;;;;;;38.50;17.50;;;;;;;1.98;92.71;98911.75;107701;1272;22535;-77
2023/11/11 07:11:43;;;;;;;39.60;18.50;;;;;;;1.96;92.77;98916.87;107935;1272;23242;-76
2023/11/11 07:14:12;;;;;;;40.10;18.70;;;;;;;1.96;92.89;98917.64;107908;1272;23018;-76
2023/11/11 07:16:40;;;;;;;41.20;18.00;;;;;;;1.99;93.05;98918.63;110662;1272;23217;-78
2023/11/11 07:19:09;;;;;;;39.10;18.20;;;;;;;2.01;93.08;98921.52;110756;1272;22154;-76
2023/11/11 07:21:37;;;;;;;38.20;18.10;;;;;;;2.04;93.21;98920.23;110771;1272;22156;-77
2023/11/11 07:24:06;;;;;;;37.60;17.50;;;;;;;2.10;93.58;98916.13;110771;1272;23091;-77
2023/11/11 07:26:35;;;;;;;38.40;18.00;;;;;;;2.15;93.72;98912.99;110809;1272;22361;-78
2023/11/11 07:29:03;;;;;;;47.70;21.40;;;;;;;2.22;93.93;98914.26;110789;1272;22179;-77
2023/11/11 07:31:32;;;;;;;75.90;35.90;;;;;;;2.28;94.01;98911.64;110794;1266;22300;-76
2023/11/11 07:34:00;;;;;;;62.40;28.70;;;;;;;2.34;94.38;98908.71;110768;1272;22208;-77
2023/11/11 07:36:29;;;;;;;48.10;23.70;;;;;;;2.40;94.42;98910.20;110772;1272;23027;-77
2023/11/11 07:38:57;;;;;;;52.10;23.20;;;;;;;2.46;94.63;98909.62;110754;1272;22353;-77
2023/11/11 07:41:26;;;;;;;52.60;26.30;;;;;;;2.53;94.45;98906.69;110745;1265;22357;-76
2023/11/11 07:43:56;;;;;;;42.70;22.40;;;;;;;2.57;94.43;98903.42;110662;1272;22675;-77
2023/11/11 07:46:24;;;;;;;43.30;22.20;;;;;;;2.63;94.69;98900.29;110688;1272;22291;-77
2023/11/11 07:48:53;;;;;;;45.80;22.50;;;;;;;2.69;94.78;98899.30;110694;1272;22928;-77
2023/11/11 07:51:22;;;;;;;45.30;21.70;;;;;;;2.76;95.02;98900.58;110637;1271;22827;-77
2023/11/11 07:53:50;;;;;;;49.40;23.90;;;;;;;2.83;95.29;98899.06;110710;1266;22347;-77
2023/11/11 07:56:20;;;;;;;;;;;;;;;2.90;95.57;98904.21;110771;1272;22440;-77
2023/11/11 07:58:52;;;;;;;69.70;31.00;;;;;;;2.97;95.98;98902.98;110700;1272;23474;-76
2023/11/11 08:01:23;;;;;;;67.10;29.30;;;;;;;3.04;96.20;98906.36;110735;1265;22404;-76
2023/11/11 08:03:53;;;;;;;65.40;32.90;;;;;;;3.10;96.13;98907.98;110781;1266;22275;-77
2023/11/11 08:06:25;;;;;;;62.30;30.20;;;;;;;3.16;96.20;98906.77;110778;1272;22305;-77
2023/11/11 08:08:54;;;;;;;56.70;29.20;;;;;;;3.20;96.20;98902.88;110737;1269;24457;-75
2023/11/11 08:11:24;;;;;;;58.30;28.60;;;;;;;3.26;96.20;98900.83;110715;1267;22368;-75
2023/11/11 08:13:52;;;;;;;60.70;26.50;;;;;;;3.33;96.23;98900.55;110740;1267;22193;-76
2023/11/11 08:16:21;;;;;;;60.20;28.40;;;;;;;3.40;96.38;98903.48;110730;1266;22333;-75
2023/11/11 08:18:50;;;;;;;63.30;30.30;;;;;;;3.49;97.03;98890.39;110730;1272;22339;-76
2023/11/11 08:21:25;;;;;;;87.10;42.60;;;;;;;3.58;97.39;98882.09;110746;1266;22456;-77
2023/11/11 08:23:53;;;;;;;97.60;44.50;;;;;;;3.67;97.44;98883.46;110472;1268;22514;-77
2023/11/11 08:26:22;;;;;;;79.60;37.70;;;;;;;3.75;97.75;98886.36;108887;1268;24250;-75
2023/11/11 08:28:50;;;;;;;73.90;35.60;;;;;;;3.81;97.73;98889.83;107826;1266;24338;-76
2023/11/11 08:31:20;;;;;;;65.50;31.10;;;;;;;3.88;97.74;98890.79;107807;1266;22078;-76
2023/11/11 08:33:49;;;;;;;60.10;29.30;;;;;;;3.95;97.91;98888.39;107815;1266;23427;-76
2023/11/11 08:36:18;;;;;;;54.30;27.20;;;;;;;4.01;97.81;98888.98;107861;1266;22605;-78
2023/11/11 08:38:46;;;;;;;57.00;27.60;;;;;;;4.07;98.18;98891.27;107822;1264;23760;-76
2023/11/11 08:41:17;;;;;;;55.60;27.70;;;;;;;4.14;98.26;98888.98;107919;1264;24272;-75
2023/11/11 08:43:46;;;;;;;50.50;26.30;;;;;;;4.20;98.33;98885.05;107942;1266;23919;-75
2023/11/11 08:46:15;;;;;;;54.90;26.80;;;;;;;4.27;98.52;98879.37;107741;1266;22639;-75
2023/11/11 08:48:46;;;;;;;52.60;26.80;;;;;;;4.35;98.61;98879.65;107805;1266;22519;-78
2023/11/11 08:51:15;;;;;;;57.90;30.40;;;;;;;4.45;98.96;98878.95;107681;1266;23279;-76
2023/11/11 08:53:43;;;;;;;64.10;31.60;;;;;;;4.53;99.26;98877.58;107893;1266;22642;-77
2023/11/11 08:56:13;;;;;;;56.40;32.10;;;;;;;4.62;99.56;98874.14;107794;1264;22528;-77
2023/11/11 08:58:42;;;;;;;58.70;32.20;;;;;;;4.70;99.41;98879.85;110659;1272;22274;-76
2023/11/11 09:01:11;;;;;;;79.70;41.10;;;;;;;4.78;99.56;98882.30;110763;1269;23246;-77
2023/11/11 09:03:39;;;;;;;80.10;42.00;;;;;;;4.86;99.75;98879.91;110691;1272;22391;-77
2023/11/11 09:06:09;;;;;;;75.50;42.40;;;;;;;4.94;99.93;98879.05;110737;1272;22224;-76
2023/11/11 09:08:39;;;;;;;71.40;36.50;;;;;;;5.03;100.00;98881.13;110679;1272;22217;-74
2023/11/11 09:11:08;;;;;;;66.00;35.60;;;;;;;5.11;100.00;98875.05;110685;1272;22233;-74
2023/11/11 09:13:38;;;;;;;67.90;36.00;;;;;;;5.19;100.00;98875.72;110729;1272;22327;-75
2023/11/11 09:16:09;;;;;;;66.50;35.00;;;;;;;5.26;100.00;98875.45;110714;1266;22257;-74
2023/11/11 09:18:37;;;;;;;65.80;35.00;;;;;;;5.34;100.00;98874.27;110722;1272;22293;-75
2023/11/11 09:21:07;;;;;;;58.70;31.40;;;;;;;5.41;100.00;98876.80;110701;1267;23077;-75
2023/11/11 09:23:37;;;;;;;51.40;26.90;;;;;;;5.46;100.00;98876.80;110683;1272;22301;-75
2023/11/11 09:26:05;;;;;;;76.90;37.00;;;;;;;5.52;100.00;98875.99;110716;1269;22384;-75
2023/11/11 09:28:35;;;;;;;58.80;32.70;;;;;;;5.60;100.00;98878.84;110655;1272;23335;-75
2023/11/11 09:31:04;;;;;;;63.70;33.30;;;;;;;5.67;100.00;98873.92;110578;1266;22358;-75
2023/11/11 09:33:32;;;;;;;57.40;30.90;;;;;;;5.74;100.00;98875.85;110606;1266;23344;-76
2023/11/11 09:36:01;;;;;;;62.70;33.40;;;;;;;5.81;100.00;98874.45;109878;1266;23179;-76
2023/11/11 09:38:29;;;;;;;58.00;32.90;;;;;;;5.86;100.00;98876.02;107921;1267;23180;-75
2023/11/11 09:40:58;;;;;;;53.80;29.30;;;;;;;5.91;100.00;98870.42;107855;1265;22523;-76
2023/11/11 09:43:27;;;;;;;55.10;29.30;;;;;;;5.99;100.00;98869.91;107728;1272;22581;-76
2023/11/11 09:45:58;;;;;;;58.40;30.00;;;;;;;6.05;100.00;98870.10;107704;1267;22562;-76
2023/11/11 09:48:30;;;;;;;59.00;32.30;;;;;;;6.11;100.00;98865.36;107800;1265;22603;-76
2023/11/11 09:50:59;;;;;;;74.50;40.10;;;;;;;6.18;100.00;98860.73;107828;1267;22607;-75
2023/11/11 09:53:28;;;;;;;61.00;31.50;;;;;;;6.24;100.00;98860.07;107863;1272;22536;-75
2023/11/11 09:55:57;;;;;;;61.40;33.30;;;;;;;6.29;100.00;98859.33;107873;1272;23146;-75
2023/11/11 09:58:27;;;;;;;58.10;29.80;;;;;;;6.33;100.00;98858.88;107825;1267;23405;-74
2023/11/11 10:00:55;;;;;;;53.20;27.20;;;;;;;6.39;100.00;98857.64;107763;1272;22504;-75
2023/11/11 10:03:23;;;;;;;54.20;28.20;;;;;;;6.45;100.00;98860.85;107770;1269;22538;-76
2023/11/11 10:05:53;;;;;;;50.00;26.40;;;;;;;6.51;100.00;98858.27;107703;1267;22525;-75
2023/11/11 10:08:24;;;;;;;48.40;25.60;;;;;;;6.56;100.00;98853.73;110578;1270;22460;-77
2023/11/11 10:10:54;;;;;;;47.00;25.50;;;;;;;6.61;100.00;98855.15;110629;1272;22360;-75
2023/11/11 10:13:23;;;;;;;49.20;24.80;;;;;;;6.66;100.00;98849.66;110646;1269;22288;-75
2023/11/11 10:16:14;;;;;;;49.40;23.80;;;;;;;6.71;100.00;98843.18;110679;1272;22223;-76
2023/11/11 10:18:43;;;;;;;44.50;22.50;;;;;;;6.77;100.00;98841.06;110692;1272;22967;-77
2023/11/11 10:21:13;;;;;;;48.10;23.50;;;;;;;6.82;100.00;98844.72;110637;1267;22362;-77
2023/11/11 10:23:44;;;;;;;42.20;21.20;;;;;;;6.89;100.00;98842.17;110637;1272;22689;-75
2023/11/11 10:26:12;;;;;;;53.80;27.50;;;;;;;6.95;100.00;98840.02;110718;1267;22457;-74
2023/11/11 10:28:41;;;;;;;45.10;22.50;;;;;;;7.02;100.00;98835.57;110694;1272;22208;-76
2023/11/11 10:31:10;;;;;;;45.30;21.50;;;;;;;7.07;99.79;98828.91;110669;1266;22181;-76
2023/11/11 10:33:40;;;;;;;42.10;19.70;;;;;;;7.11;99.46;98821.52;110670;1272;22442;-75
2023/11/11 10:36:12;;;;;;;41.70;22.80;;;;;;;7.14;99.29;98827.46;110630;1265;23173;-77
2023/11/11 10:38:42;;;;;;;47.80;25.20;;;;;;;7.20;99.59;98825.76;110693;1272;22419;-76
2023/11/11 10:41:13;;;;;;;43.90;23.20;;;;;;;7.27;99.56;98826.13;110687;1267;22186;-76
2023/11/11 10:43:44;;;;;;;50.90;25.60;;;;;;;7.32;99.30;98825.66;110642;1266;22417;-77
2023/11/11 10:46:15;;;;;;;48.10;25.00;;;;;;;7.38;99.48;98820.82;110703;1268;22460;-76
2023/11/11 10:48:43;;;;;;;44.90;23.50;;;;;;;7.44;99.45;98820.21;110677;1269;22417;-76
2023/11/11 10:51:12;;;;;;;42.20;21.90;;;;;;;7.50;99.58;98819.77;110661;1269;24240;-76
2023/11/11 10:53:43;;;;;;;36.80;18.60;;;;;;;7.56;99.57;98819.77;110646;1267;22471;-76
2023/11/11 10:56:12;;;;;;;34.70;16.20;;;;;;;7.62;99.65;98822.84;110630;1272;22377;-76
2023/11/11 10:58:42;;;;;;;31.90;15.30;;;;;;;7.67;98.85;98827.42;110716;1272;22208;-76
2023/11/11 11:01:11;;;;;;;30.40;15.00;;;;;;;7.71;98.68;98827.70;110776;1265;22310;-77
2023/11/11 11:03:42;;;;;;;30.70;14.80;;;;;;;7.73;98.13;98824.84;110662;1272;22406;-76
2023/11/11 11:06:17;;;;;;;31.10;13.00;;;;;;;7.76;98.05;98816.17;110717;1269;22194;-76
2023/11/11 11:08:57;;;;;;;31.50;14.50;;;;;;;7.80;97.95;98809.80;110746;1272;22384;-75
2023/11/11 11:11:33;;;;;;;31.10;14.90;;;;;;;7.84;98.00;98809.67;110773;1272;23034;-75
2023/11/11 11:14:12;;;;;;;32.70;15.20;;;;;;;7.87;97.79;98808.88;110643;1272;22532;-76
2023/11/11 11:16:41;;;;;;;42.30;18.30;;;;;;;7.91;97.84;98810.83;110565;1272;22243;-77
2023/11/11 11:19:15;;;;;;;42.80;20.20;;;;;;;7.94;97.85;98816.56;110729;1266;22411;-75
2023/11/11 11:21:43;;;;;;;47.00;22.20;;;;;;;7.99;97.83;98813.49;110713;1252;22183;-76
2023/11/11 11:24:14;;;;;;;43.80;23.00;;;;;;;8.03;97.95;98812.67;110636;1269;22351;-76
2023/11/11 11:26:42;;;;;;;47.10;22.80;;;;;;;8.06;97.72;98813.25;110725;1272;23540;-77